createdAt,value
2019-06-20T00:00:31.353Z,96400.24
2019-06-20T00:03:03.223Z,96395.75
2019-06-20T00:05:35.131Z,96395.45
2019-06-20T00:08:06.584Z,96387.84
2019-06-20T00:10:37.950Z,96388.05
2019-06-20T00:13:10.609Z,96389.13
2019-06-20T00:15:42.708Z,96397.92
2019-06-20T00:18:14.375Z,96407.74
2019-06-20T00:20:45.860Z,96421.77
2019-06-20T00:23:17.275Z,96429.76
2019-06-20T00:25:48.675Z,96440.85
2019-06-20T00:28:20.000Z,96457.73
2019-06-20T00:30:51.595Z,96478.58
2019-06-20T00:33:22.893Z,96478.64
2019-06-20T00:35:54.481Z,96489.52
2019-06-20T00:38:25.745Z,96502.30
2019-06-20T00:40:57.134Z,96517.87
2019-06-20T00:43:28.943Z,96521.61
2019-06-20T00:46:00.329Z,96540.45
2019-06-20T00:48:31.762Z,96540.19
2019-06-20T00:51:03.510Z,96538.91
2019-06-20T00:53:34.889Z,96511.79
2019-06-20T00:56:07.188Z,96518.97
2019-06-20T00:58:38.654Z,96524.28
2019-06-20T01:01:10.284Z,96530.24
2019-06-20T01:03:41.739Z,96534.33
2019-06-20T01:06:13.829Z,96537.02
2019-06-20T01:08:45.231Z,96538.60
2019-06-20T01:11:16.655Z,96553.16
2019-06-20T01:13:48.209Z,96564.96
2019-06-20T01:16:19.702Z,96560.69
2019-06-20T01:18:51.450Z,96564.43
2019-06-20T01:21:23.249Z,96562.38
2019-06-20T01:23:55.730Z,96574.77
2019-06-20T01:26:27.076Z,96576.17
2019-06-20T01:28:59.622Z,96588.39
2019-06-20T01:31:31.521Z,96600.28
2019-06-20T01:34:02.948Z,96610.74
2019-06-20T01:36:34.421Z,96617.70
2019-06-20T01:39:09.586Z,96628.00
2019-06-20T01:41:41.622Z,96625.37
2019-06-20T01:44:13.776Z,96627.77
2019-06-20T01:46:45.299Z,96636.06
2019-06-20T01:49:16.846Z,96625.13
2019-06-20T01:51:48.238Z,96623.08
2019-06-20T01:54:19.684Z,96613.96
2019-06-20T01:56:51.222Z,96617.86
2019-06-20T01:59:22.869Z,96624.94
2019-06-20T02:01:54.643Z,96631.25
2019-06-20T02:04:26.324Z,96643.52
2019-06-20T02:06:57.890Z,96630.48
2019-06-20T02:09:29.627Z,96631.03
2019-06-20T02:12:01.113Z,96650.05
2019-06-20T02:14:32.592Z,96657.61
2019-06-20T02:17:04.122Z,96661.27
2019-06-20T02:19:36.001Z,96664.13
2019-06-20T02:22:07.460Z,96655.98
2019-06-20T02:24:38.929Z,96648.29
2019-06-20T02:27:10.277Z,96644.20
2019-06-20T02:29:41.787Z,96646.10
2019-06-20T02:32:13.106Z,96648.53
2019-06-20T02:34:44.574Z,96649.73
2019-06-20T02:37:16.528Z,96652.10
2019-06-20T02:39:47.839Z,96652.84
2019-06-20T02:42:19.337Z,96646.53
2019-06-20T02:44:50.628Z,96665.84
2019-06-20T02:47:22.345Z,96678.56
2019-06-20T02:49:53.712Z,96687.50
2019-06-20T02:52:25.787Z,96685.03
2019-06-20T02:54:57.345Z,96676.16
2019-06-20T02:57:29.127Z,96667.42
2019-06-20T03:00:00.862Z,96655.97
2019-06-20T03:02:32.336Z,96675.20
2019-06-20T03:05:04.141Z,96677.76
2019-06-20T03:07:35.613Z,96678.25
2019-06-20T03:10:07.804Z,96672.52
2019-06-20T03:12:39.620Z,96675.98
2019-06-20T03:15:11.406Z,96676.36
2019-06-20T03:17:42.867Z,96672.36
2019-06-20T03:20:14.563Z,96665.02
2019-06-20T03:22:46.410Z,96674.44
2019-06-20T03:25:19.354Z,96682.42
2019-06-20T03:27:50.867Z,96673.16
2019-06-20T03:30:22.608Z,96673.84
2019-06-20T03:32:54.598Z,96660.83
2019-06-20T03:35:26.070Z,96639.77
2019-06-20T03:37:57.931Z,96629.77
2019-06-20T03:40:29.400Z,96616.14
2019-06-20T03:43:00.862Z,96629.63
2019-06-20T03:45:32.385Z,96639.16
2019-06-20T03:48:04.073Z,96635.66
2019-06-20T03:50:35.616Z,96641.17
2019-06-20T03:53:07.400Z,96644.65
2019-06-20T03:55:38.914Z,96624.30
2019-06-20T03:58:10.310Z,96607.27
2019-06-20T04:00:42.394Z,96602.28
2019-06-20T04:03:13.892Z,96599.02
2019-06-20T04:05:45.498Z,96592.94
2019-06-20T04:08:17.046Z,96600.68
2019-06-20T04:10:48.498Z,96608.00
2019-06-20T04:13:19.948Z,96605.79
2019-06-20T04:15:51.337Z,96614.55
2019-06-20T04:18:22.662Z,96615.51
2019-06-20T04:20:54.334Z,96619.72
2019-06-20T04:23:25.707Z,96639.27
2019-06-20T04:25:57.287Z,96642.78
2019-06-20T04:28:29.011Z,96638.91
2019-06-20T04:31:00.415Z,96645.49
2019-06-20T04:33:31.923Z,96644.16
2019-06-20T04:36:03.647Z,96641.39
2019-06-20T04:38:35.115Z,96645.92
2019-06-20T04:41:06.562Z,96642.25
2019-06-20T04:43:38.033Z,96646.72
2019-06-20T04:46:20.166Z,96648.94
2019-06-20T04:48:51.462Z,96659.47
2019-06-20T04:51:22.729Z,96649.22
2019-06-20T04:53:54.203Z,96655.92
2019-06-20T04:56:25.953Z,96654.83
2019-06-20T04:58:57.362Z,96657.72
2019-06-20T05:01:28.685Z,96662.58
2019-06-20T05:03:59.956Z,96665.55
2019-06-20T05:06:31.719Z,96669.12
2019-06-20T05:09:03.368Z,96671.38
2019-06-20T05:11:34.767Z,96669.20
2019-06-20T05:14:06.271Z,96652.10
2019-06-20T05:16:37.722Z,96654.56
2019-06-20T05:19:09.104Z,96654.86
2019-06-20T05:21:40.847Z,96641.92
2019-06-20T05:24:12.233Z,96650.23
2019-06-20T05:26:43.490Z,96644.24
2019-06-20T05:29:15.374Z,96637.71
2019-06-20T05:31:46.804Z,96641.02
2019-06-20T05:34:18.527Z,96642.55
2019-06-20T05:36:50.335Z,96641.95
2019-06-20T05:39:22.215Z,96640.37
2019-06-20T05:41:53.604Z,96649.36
2019-06-20T05:44:25.376Z,96647.98
2019-06-20T05:47:11.424Z,96662.23
2019-06-20T05:49:30.196Z,96666.73
2019-06-20T05:52:01.711Z,96666.67
2019-06-20T05:54:33.043Z,96662.69
2019-06-20T05:57:04.756Z,96670.44
2019-06-20T05:59:36.293Z,96670.55
2019-06-20T06:02:08.214Z,96676.00
2019-06-20T06:04:39.658Z,96674.17
2019-06-20T06:07:14.122Z,96679.65
2019-06-20T06:09:45.582Z,96692.84
2019-06-20T06:12:17.250Z,96702.98
2019-06-20T06:14:49.132Z,96707.91
2019-06-20T06:17:21.112Z,96722.97
2019-06-20T06:19:52.657Z,96724.80
2019-06-20T06:22:25.616Z,96737.49
2019-06-20T06:24:57.273Z,96744.03
2019-06-20T06:27:47.149Z,96748.28
2019-06-20T06:30:19.942Z,96755.14
2019-06-20T06:32:56.540Z,96766.70
2019-06-20T06:35:28.847Z,96754.37
2019-06-20T06:38:02.984Z,96756.19
2019-06-20T06:40:34.516Z,96753.50
2019-06-20T06:43:05.957Z,96756.32
2019-06-20T06:45:37.498Z,96752.66
2019-06-20T06:48:09.203Z,96752.14
2019-06-20T06:50:40.953Z,96749.59
2019-06-20T06:53:12.323Z,96750.73
2019-06-20T06:55:43.714Z,96755.86
2019-06-20T06:58:15.249Z,96755.34
2019-06-20T07:00:47.274Z,96748.45
2019-06-20T07:03:18.635Z,96743.16
2019-06-20T07:05:50.089Z,96746.09
2019-06-20T07:08:21.440Z,96751.27
2019-06-20T07:10:53.803Z,96744.80
2019-06-20T07:13:25.281Z,96744.80
2019-06-20T07:15:56.679Z,96738.45
2019-06-20T07:18:28.034Z,96734.25
2019-06-20T07:20:59.562Z,96729.18
2019-06-20T07:23:30.917Z,96729.94
2019-06-20T07:26:02.325Z,96728.83
2019-06-20T07:28:34.030Z,96722.11
2019-06-20T07:31:04.804Z,96713.86
2019-06-20T07:33:36.181Z,96711.36
2019-06-20T07:36:08.113Z,96715.69
2019-06-20T07:38:39.459Z,96719.97
2019-06-20T07:41:11.191Z,96711.23
2019-06-20T07:43:42.835Z,96708.39
2019-06-20T07:46:14.293Z,96708.48
2019-06-20T07:48:45.926Z,96705.57
2019-06-20T07:51:17.944Z,96695.03
2019-06-20T07:53:49.310Z,96715.09
2019-06-20T07:56:20.714Z,96715.58
2019-06-20T07:58:52.306Z,96705.92
2019-06-20T08:01:24.223Z,96698.98
2019-06-20T08:03:55.579Z,96686.82
2019-06-20T08:06:27.120Z,96699.47
2019-06-20T08:08:59.015Z,96701.13
2019-06-20T08:11:30.506Z,96702.98
2019-06-20T08:14:01.908Z,96688.88
2019-06-20T08:16:33.437Z,96687.94
2019-06-20T08:19:04.901Z,96682.12
2019-06-20T08:21:36.355Z,96688.06
2019-06-20T08:24:07.802Z,96691.95
2019-06-20T08:26:39.523Z,96698.37
2019-06-20T08:29:20.829Z,96703.23
2019-06-20T08:31:44.009Z,96709.00
2019-06-20T08:34:15.376Z,96709.00
2019-06-20T08:36:46.816Z,96712.56
2019-06-20T08:39:18.203Z,96719.11
2019-06-20T08:41:49.581Z,96718.43
2019-06-20T08:44:21.659Z,96716.77
2019-06-20T08:46:53.027Z,96707.31
2019-06-20T08:49:25.472Z,96716.14
2019-06-20T08:51:57.376Z,96714.20
2019-06-20T08:54:28.721Z,96718.84
2019-06-20T08:57:00.811Z,96724.45
2019-06-20T08:59:32.356Z,96720.94
2019-06-20T09:04:36.236Z,96721.20
2019-06-20T09:07:07.792Z,96725.92
2019-06-20T09:09:39.267Z,96712.84
2019-06-20T09:12:10.587Z,96717.70
2019-06-20T09:14:42.308Z,96720.08
2019-06-20T09:17:13.923Z,96720.58
2019-06-20T09:19:45.692Z,96728.73
2019-06-20T09:22:17.448Z,96735.90
2019-06-20T09:24:49.175Z,96738.26
2019-06-20T09:27:21.065Z,96739.23
2019-06-20T09:29:53.266Z,96748.70
2019-06-20T09:32:25.645Z,96742.03
2019-06-20T09:34:57.035Z,96747.61
2019-06-20T09:37:28.449Z,96746.30
2019-06-20T09:39:59.822Z,96750.06
2019-06-20T09:42:31.381Z,96752.70
2019-06-20T09:45:02.970Z,96753.27
2019-06-20T09:47:34.465Z,96760.36
2019-06-20T09:50:08.405Z,96752.73
2019-06-20T09:52:40.125Z,96766.83
2019-06-20T09:55:13.461Z,96782.05
2019-06-20T09:57:45.169Z,96774.77
2019-06-20T10:00:17.976Z,96776.84
2019-06-20T10:02:50.673Z,96773.75
2019-06-20T10:05:23.234Z,96774.11
2019-06-20T10:07:54.737Z,96772.34
2019-06-20T10:10:30.914Z,96777.11
2019-06-20T10:13:02.366Z,96777.66
2019-06-20T10:15:36.941Z,96778.59
2019-06-20T10:18:08.558Z,96783.73
2019-06-20T10:20:40.014Z,96773.91
2019-06-20T10:23:11.474Z,96790.78
2019-06-20T10:25:42.934Z,96785.31
2019-06-20T10:28:14.382Z,96790.77
2019-06-20T10:30:46.501Z,96787.64
2019-06-20T10:33:18.084Z,96784.95
2019-06-20T10:35:50.366Z,96779.88
2019-06-20T10:38:21.945Z,96775.34
2019-06-20T10:40:53.465Z,96778.45
2019-06-20T10:43:25.097Z,96780.84
2019-06-20T10:45:56.769Z,96768.36
2019-06-20T10:48:28.092Z,96776.84
2019-06-20T10:51:18.439Z,96773.98
2019-06-20T10:53:51.423Z,96773.48
2019-06-20T10:56:22.825Z,96772.30
2019-06-20T10:58:54.160Z,96763.78
2019-06-20T11:01:25.760Z,96772.73
2019-06-20T11:03:57.066Z,96771.02
2019-06-20T11:06:28.454Z,96767.78
2019-06-20T11:08:59.762Z,96759.38
2019-06-20T11:11:31.121Z,96762.43
2019-06-20T11:14:02.667Z,96756.77
2019-06-20T11:16:34.512Z,96760.05
2019-06-20T11:19:05.973Z,96754.14
2019-06-20T11:21:39.503Z,96749.81
2019-06-20T11:24:11.457Z,96751.48
2019-06-20T11:26:43.080Z,96748.35
2019-06-20T11:29:15.005Z,96746.41
2019-06-20T11:31:47.916Z,96747.05
2019-06-20T11:34:19.585Z,96751.69
2019-06-20T11:36:51.280Z,96742.37
2019-06-20T11:39:23.248Z,96736.72
2019-06-20T11:41:54.704Z,96731.74
2019-06-20T11:44:26.154Z,96719.11
2019-06-20T11:46:57.462Z,96722.61
2019-06-20T11:49:28.933Z,96720.16
2019-06-20T11:52:00.352Z,96709.78
2019-06-20T11:54:32.834Z,96696.30
2019-06-20T11:57:04.887Z,96707.73
2019-06-20T11:59:36.266Z,96703.73
2019-06-20T12:02:08.960Z,96699.16
2019-06-20T12:04:41.484Z,96692.17
2019-06-20T12:07:13.304Z,96693.23
2019-06-20T12:09:44.700Z,96701.24
2019-06-20T12:12:16.181Z,96687.88
2019-06-20T12:14:48.606Z,96692.91
2019-06-20T12:17:20.109Z,96693.23
2019-06-20T12:19:51.491Z,96689.34
2019-06-20T12:22:22.880Z,96687.70
2019-06-20T12:24:54.659Z,96695.64
2019-06-20T12:27:26.271Z,96682.56
2019-06-20T12:29:57.842Z,96688.61
2019-06-20T12:32:29.328Z,96681.77
2019-06-20T12:35:00.743Z,96677.43
2019-06-20T12:37:32.101Z,96673.86
2019-06-20T12:40:03.554Z,96679.23
2019-06-20T12:42:34.931Z,96685.90
2019-06-20T12:45:07.887Z,96679.35
2019-06-20T12:47:40.209Z,96679.13
2019-06-20T12:50:12.336Z,96670.91
2019-06-20T12:52:45.364Z,96668.41
2019-06-20T12:55:16.872Z,96664.66
2019-06-20T12:57:48.645Z,96667.09
2019-06-20T13:00:21.891Z,96660.08
2019-06-20T13:02:53.296Z,96664.41
2019-06-20T13:05:25.555Z,96665.09
2019-06-20T13:07:57.003Z,96666.54
2019-06-20T13:10:28.473Z,96651.36
2019-06-20T13:12:59.988Z,96645.71
2019-06-20T13:15:31.311Z,96645.01
2019-06-20T13:18:02.897Z,96645.73
2019-06-20T13:20:34.271Z,96643.34
2019-06-20T13:23:05.633Z,96646.16
2019-06-20T13:25:37.712Z,96654.94
2019-06-20T13:28:10.104Z,96647.59
2019-06-20T13:30:45.987Z,96661.69
2019-06-20T13:33:15.566Z,96654.87
2019-06-20T13:35:48.631Z,96650.16
2019-06-20T13:38:21.142Z,96648.52
2019-06-20T13:40:52.569Z,96648.61
2019-06-20T13:43:24.416Z,96649.64
2019-06-20T13:45:55.895Z,96643.91
2019-06-20T13:48:27.259Z,96627.84
2019-06-20T13:50:58.870Z,96635.62
2019-06-20T13:53:30.449Z,96633.16
2019-06-20T13:56:02.490Z,96635.03
2019-06-20T13:58:33.778Z,96634.13
2019-06-20T14:01:05.352Z,96628.17
2019-06-20T14:03:36.727Z,96620.45
2019-06-20T14:06:08.128Z,96613.19
2019-06-20T14:08:42.353Z,96603.77
2019-06-20T14:11:12.820Z,96607.52
2019-06-20T14:13:49.386Z,96605.15
2019-06-20T14:16:17.385Z,96601.54
2019-06-20T14:18:50.242Z,96606.06
2019-06-20T14:21:21.793Z,96611.55
2019-06-20T14:23:53.855Z,96614.00
2019-06-20T14:26:25.517Z,96620.92
2019-06-20T14:28:57.008Z,96616.99
2019-06-20T14:31:28.685Z,96633.39
2019-06-20T14:34:00.082Z,96638.88
2019-06-20T14:36:31.606Z,96646.94
2019-06-20T14:39:03.021Z,96663.92
2019-06-20T14:41:36.365Z,96653.14
2019-06-20T14:44:07.801Z,96656.02
2019-06-20T14:46:39.525Z,96664.64
2019-06-20T14:49:11.084Z,96657.08
2019-06-20T14:51:43.561Z,96660.55
2019-06-20T14:54:15.695Z,96651.27
2019-06-20T14:56:47.945Z,96646.98
2019-06-20T14:59:19.465Z,96639.56
2019-06-20T15:01:52.562Z,96656.24
2019-06-20T15:04:25.280Z,96659.53
2019-06-20T15:06:56.811Z,96670.52
2019-06-20T15:09:28.185Z,96674.53
2019-06-20T15:11:59.593Z,96689.09
2019-06-20T15:14:30.827Z,96695.42
2019-06-20T15:17:02.222Z,96693.30
2019-06-20T15:19:33.573Z,96693.77
2019-06-20T15:22:04.984Z,96706.16
2019-06-20T15:24:36.687Z,96714.51
2019-06-20T15:27:08.169Z,96717.15
2019-06-20T15:29:39.376Z,96729.03
2019-06-20T15:32:10.721Z,96721.72
2019-06-20T15:34:42.033Z,96730.33
2019-06-20T15:37:13.797Z,96725.13
2019-06-20T15:39:45.174Z,96731.39
2019-06-20T15:42:16.603Z,96743.77
2019-06-20T15:44:48.982Z,96734.80
2019-06-20T15:47:21.484Z,96739.20
2019-06-20T15:49:52.982Z,96737.09
2019-06-20T15:52:24.388Z,96733.16
2019-06-20T15:54:55.726Z,96740.50
2019-06-20T15:57:28.011Z,96737.17
2019-06-20T15:59:59.311Z,96746.08
2019-06-20T16:02:30.812Z,96754.73
2019-06-20T16:05:02.336Z,96757.58
2019-06-20T16:07:33.773Z,96763.52
2019-06-20T16:10:05.484Z,96755.11
2019-06-20T16:12:36.938Z,96760.03
2019-06-20T16:15:08.977Z,96772.19
2019-06-20T16:17:40.479Z,96773.91
2019-06-20T16:20:12.324Z,96776.05
2019-06-20T16:22:43.836Z,96775.43
2019-06-20T16:25:16.198Z,96768.80
2019-06-20T16:27:47.491Z,96776.53
2019-06-20T16:30:21.101Z,96778.77
2019-06-20T16:32:52.457Z,96783.82
2019-06-20T16:35:23.893Z,96781.78
2019-06-20T16:37:55.371Z,96776.44
2019-06-20T16:40:47.794Z,96777.80
2019-06-20T16:43:19.795Z,96768.66
2019-06-20T16:45:51.527Z,96768.42
2019-06-20T16:48:22.827Z,96773.53
2019-06-20T16:50:54.234Z,96767.42
2019-06-20T16:53:25.781Z,96770.94
2019-06-20T16:55:57.290Z,96765.31
2019-06-20T16:58:28.659Z,96775.74
2019-06-20T17:01:00.119Z,96762.87
2019-06-20T17:03:41.167Z,96758.14
2019-06-20T17:06:04.556Z,96757.48
2019-06-20T17:08:35.940Z,96758.59
2019-06-20T17:11:07.433Z,96758.02
2019-06-20T17:13:38.810Z,96759.17
2019-06-20T17:16:10.364Z,96773.55
2019-06-20T17:18:41.918Z,96771.13
2019-06-20T17:21:13.479Z,96772.55
2019-06-20T17:23:45.926Z,96772.77
2019-06-20T17:26:17.448Z,96771.69
2019-06-20T17:28:48.831Z,96772.31
2019-06-20T17:31:20.764Z,96770.72
2019-06-20T17:33:57.559Z,96782.83
2019-06-20T17:36:25.441Z,96780.75
2019-06-20T17:38:56.954Z,96794.80
2019-06-20T17:41:28.240Z,96791.64
2019-06-20T17:43:59.464Z,96789.34
2019-06-20T17:46:30.839Z,96786.41
2019-06-20T17:49:02.189Z,96788.83
2019-06-20T17:51:33.638Z,96794.13
2019-06-20T17:54:05.013Z,96787.42
2019-06-20T17:56:36.408Z,96796.34
2019-06-20T17:59:07.860Z,96805.28
2019-06-20T18:01:39.316Z,96808.09
2019-06-20T18:04:14.095Z,96808.02
2019-06-20T18:06:44.284Z,96814.20
2019-06-20T18:09:15.749Z,96823.62
2019-06-20T18:11:47.113Z,96818.52
2019-06-20T18:14:18.511Z,96823.80
2019-06-20T18:16:50.094Z,96823.80
2019-06-20T18:19:21.402Z,96827.55
2019-06-20T18:21:52.902Z,96834.80
2019-06-20T18:24:24.225Z,96826.25
2019-06-20T18:26:55.687Z,96837.83
2019-06-20T18:29:27.980Z,96835.70
2019-06-20T18:31:59.213Z,96833.25
2019-06-20T18:34:30.842Z,96836.22
2019-06-20T18:37:02.281Z,96833.64
2019-06-20T18:39:33.675Z,96837.30
2019-06-20T18:42:05.147Z,96839.23
2019-06-20T18:44:36.642Z,96823.63
2019-06-20T18:47:08.086Z,96828.16
2019-06-20T18:49:39.562Z,96847.36
2019-06-20T18:52:10.925Z,96835.25
2019-06-20T18:54:42.234Z,96825.80
2019-06-20T18:57:13.598Z,96822.80
2019-06-20T18:59:45.232Z,96836.59
2019-06-20T19:02:17.616Z,96835.32
2019-06-20T19:04:50.902Z,96832.54
2019-06-20T19:07:22.822Z,96833.06
2019-06-20T19:09:54.534Z,96834.62
2019-06-20T19:12:25.810Z,96831.57
2019-06-20T19:14:57.145Z,96840.06
2019-06-20T19:17:28.475Z,96840.52
2019-06-20T19:20:00.498Z,96836.66
2019-06-20T19:22:32.838Z,96837.14
2019-06-20T19:25:04.753Z,96838.16
2019-06-20T19:27:45.466Z,96835.82
2019-06-20T19:30:09.855Z,96838.63
2019-06-20T19:32:41.327Z,96843.32
2019-06-20T19:35:13.562Z,96844.52
2019-06-20T19:37:44.909Z,96838.72
2019-06-20T19:40:16.478Z,96839.92
2019-06-20T19:42:47.760Z,96840.14
2019-06-20T19:45:19.505Z,96846.39
2019-06-20T19:47:50.993Z,96854.28
2019-06-20T19:50:23.037Z,96859.67
2019-06-20T19:52:54.825Z,96856.31
2019-06-20T19:55:26.350Z,96857.25
2019-06-20T19:57:57.764Z,96855.57
2019-06-20T20:00:29.140Z,96849.66
2019-06-20T20:03:00.575Z,96854.92
2019-06-20T20:05:32.202Z,96855.15
2019-06-20T20:08:03.966Z,96863.20
2019-06-20T20:10:47.197Z,96865.92
2019-06-20T20:13:18.782Z,96865.31
2019-06-20T20:15:50.228Z,96870.74
2019-06-20T20:18:22.231Z,96856.86
2019-06-20T20:20:53.674Z,96856.02
2019-06-20T20:23:25.036Z,96869.78
2019-06-20T20:25:56.340Z,96869.02
2019-06-20T20:28:27.559Z,96881.38
2019-06-20T20:30:58.885Z,96882.36
2019-06-20T20:33:30.420Z,96879.08
2019-06-20T20:36:02.122Z,96887.84
2019-06-20T20:38:33.515Z,96878.30
2019-06-20T20:41:04.803Z,96884.37
2019-06-20T20:43:36.086Z,96892.16
2019-06-20T20:46:07.533Z,96887.89
2019-06-20T20:48:38.909Z,96902.66
2019-06-20T20:51:10.477Z,96903.77
2019-06-20T20:53:41.774Z,96905.88
2019-06-20T20:56:13.485Z,96910.27
2019-06-20T20:58:44.872Z,96905.02
2019-06-20T21:01:29.576Z,96910.31
2019-06-20T21:04:01.510Z,96912.18
2019-06-20T21:06:32.974Z,96916.53
2019-06-20T21:09:05.575Z,96919.13
2019-06-20T21:11:38.156Z,96932.14
2019-06-20T21:14:09.841Z,96943.56
2019-06-20T21:16:41.180Z,96947.12
2019-06-20T21:19:12.823Z,96949.77
2019-06-20T21:21:44.147Z,96953.07
2019-06-20T21:24:15.494Z,96956.36
2019-06-20T21:26:49.824Z,96952.02
2019-06-20T21:29:20.345Z,96955.41
2019-06-20T21:31:52.067Z,96945.00
2019-06-20T21:34:23.447Z,96957.09
2019-06-20T21:36:54.780Z,96955.50
2019-06-20T21:39:26.083Z,96961.83
2019-06-20T21:41:57.600Z,96964.52
2019-06-20T21:44:29.003Z,96961.91
2019-06-20T21:47:00.483Z,96965.39
2019-06-20T21:49:31.872Z,96962.00
2019-06-20T21:52:03.433Z,96961.22
2019-06-20T21:54:35.241Z,96955.27
2019-06-20T21:57:07.045Z,96960.34
2019-06-20T21:59:38.566Z,96956.88
2019-06-20T22:02:10.275Z,96957.86
2019-06-20T22:04:53.992Z,96970.76
2019-06-20T22:07:15.278Z,96969.43
2019-06-20T22:09:46.801Z,96972.03
2019-06-20T22:12:18.297Z,96970.30
2019-06-20T22:14:49.864Z,96967.78
2019-06-20T22:17:21.182Z,96965.00
2019-06-20T22:19:52.822Z,96971.90
2019-06-20T22:22:24.173Z,96960.53
2019-06-20T22:24:55.884Z,96958.02
2019-06-20T22:27:27.590Z,96942.30
2019-06-20T22:29:58.977Z,96949.11
2019-06-20T22:32:30.371Z,96946.51
2019-06-20T22:35:01.772Z,96936.91
2019-06-20T22:37:33.276Z,96930.83
2019-06-20T22:40:06.459Z,96931.61
2019-06-20T22:42:37.945Z,96933.38
2019-06-20T22:45:11.634Z,96923.02
2019-06-20T22:47:43.069Z,96925.75
2019-06-20T22:50:14.891Z,96920.55
2019-06-20T22:52:46.134Z,96931.19
2019-06-20T22:55:17.766Z,96917.22
2019-06-20T22:57:49.094Z,96910.31
2019-06-20T23:00:21.896Z,96901.67
2019-06-20T23:02:53.218Z,96910.41
2019-06-20T23:05:24.593Z,96914.74
2019-06-20T23:07:56.079Z,96908.62
2019-06-20T23:10:27.968Z,96902.31
2019-06-20T23:13:00.157Z,96902.31
2019-06-20T23:15:31.868Z,96910.03
2019-06-20T23:18:03.216Z,96928.17
2019-06-20T23:20:34.744Z,96943.63
2019-06-20T23:23:07.091Z,96941.70
2019-06-20T23:25:40.322Z,96944.05
2019-06-20T23:28:11.805Z,96943.59
2019-06-20T23:30:44.112Z,96944.86
2019-06-20T23:33:15.504Z,96945.13
2019-06-20T23:35:47.214Z,96942.75
2019-06-20T23:38:18.555Z,96940.23
2019-06-20T23:40:50.020Z,96940.52
2019-06-20T23:43:21.750Z,96946.78
2019-06-20T23:45:54.210Z,96961.79
2019-06-20T23:48:25.486Z,96953.20
2019-06-20T23:50:57.511Z,96953.41
2019-06-20T23:53:28.975Z,96955.27
2019-06-20T23:56:00.695Z,96962.70
2019-06-20T23:58:32.114Z,96953.36
